Time;durP1;ratioP1;P1;durP2;ratioP2;P2;SDS_P1;SDS_P2;PMS_P1;PMS_P2;Temp;Humidity;BMP_temperature;BMP_pressure;BME280_temperature;BME280_humidity;BME280_pressure;Samples;Min_cycle;Max_cycle;Signal;HPM_P1;HPM_P2
2023/06/22 00:01:57;;;;;;;29.85;20.95;;;;;;;16.46;96.25;101938.13;10252052;29;20035;-69
2023/06/22 00:06:58;;;;;;;31.38;20.40;;;;;;;16.38;95.55;101933.75;10234940;29;20115;-69
2023/06/22 00:11:58;;;;;;;36.28;20.15;;;;;;;16.31;96.59;101929.34;10252080;29;20394;-69
2023/06/22 00:16:59;;;;;;;38.30;20.85;;;;;;;16.30;96.35;101922.16;10235347;29;20080;-69
2023/06/22 00:22:00;;;;;;;28.85;20.35;;;;;;;16.24;95.70;101923.84;10250991;29;20038;-69
2023/06/22 00:27:00;;;;;;;24.65;16.52;;;;;;;16.23;95.35;101927.63;10234708;29;20050;-69
2023/06/22 00:32:00;;;;;;;30.02;20.98;;;;;;;16.24;95.63;101923.84;10251702;29;20035;-69
2023/06/22 00:37:01;;;;;;;29.98;20.05;;;;;;;16.21;95.57;101925.13;10252938;29;20110;-71
2023/06/22 00:42:01;;;;;;;26.30;19.45;;;;;;;16.19;95.98;101915.44;10251923;28;20134;-69
2023/06/22 00:47:02;;;;;;;31.77;21.35;;;;;;;16.16;95.85;101904.94;10249609;29;20167;-69
2023/06/22 00:52:03;;;;;;;34.70;21.50;;;;;;;16.21;96.21;101900.53;10233738;29;20034;-69
2023/06/22 00:57:03;;;;;;;30.73;21.30;;;;;;;16.22;96.79;101899.47;10249936;29;20090;-69
2023/06/22 01:02:04;;;;;;;38.78;23.13;;;;;;;16.24;97.20;101896.50;10249379;29;20126;-68
2023/06/22 01:07:13;;;;;;;32.17;20.13;;;;;;;16.26;97.23;101891.69;10250004;29;20043;-69
2023/06/22 01:12:13;;;;;;;29.77;20.30;;;;;;;16.20;97.82;101896.09;10233441;29;20463;-68
2023/06/22 01:17:16;;;;;;;22.45;17.77;;;;;;;16.21;98.00;101896.97;10251485;29;20059;-69
2023/06/22 01:22:16;;;;;;;27.30;20.55;;;;;;;16.11;97.73;101900.09;10250486;28;20031;-69
2023/06/22 01:27:36;;;;;;;30.15;20.33;;;;;;;16.10;98.27;101897.56;10217321;29;20473;-69
2023/06/22 01:32:38;;;;;;;30.65;20.45;;;;;;;16.12;98.39;101890.03;10252998;28;20035;-69
2023/06/22 01:37:38;;;;;;;36.78;21.55;;;;;;;16.06;98.38;101890.84;10236826;28;20039;-69
2023/06/22 01:42:39;;;;;;;29.83;21.67;;;;;;;16.12;98.71;101892.75;10263110;28;20080;-69
2023/06/22 01:47:39;;;;;;;29.00;21.75;;;;;;;16.07;99.37;101893.38;10242549;29;20158;-69
2023/06/22 01:52:39;;;;;;;30.15;22.40;;;;;;;16.08;99.78;101896.94;10258524;29;20032;-68
2023/06/22 01:57:40;;;;;;;36.20;24.90;;;;;;;16.09;100.00;101894.00;10275587;28;20042;-69
2023/06/22 02:02:50;;;;;;;34.70;24.23;;;;;;;16.09;100.00;101887.72;10257816;29;20036;-69
2023/06/22 02:07:55;;;;;;;33.65;25.50;;;;;;;16.04;100.00;101891.88;10255339;29;20075;-69
2023/06/22 02:12:55;;;;;;;31.48;24.90;;;;;;;16.00;100.00;101887.06;10238935;29;20035;-69
2023/06/22 02:17:55;;;;;;;38.25;23.70;;;;;;;15.90;100.00;101876.56;10239116;29;20047;-69
2023/06/22 02:22:56;;;;;;;36.70;26.58;;;;;;;15.93;100.00;101880.75;10238511;29;20438;-69
2023/06/22 02:27:56;;;;;;;43.03;24.98;;;;;;;15.88;100.00;101864.97;10271471;28;20058;-69
2023/06/22 02:32:59;;;;;;;40.60;27.05;;;;;;;15.85;100.00;101870.03;10238741;29;20411;-69
2023/06/22 02:38:00;;;;;;;44.85;24.85;;;;;;;15.84;100.00;101866.47;10255740;28;20059;-69
2023/06/22 02:43:02;;;;;;;40.05;27.40;;;;;;;15.86;100.00;101869.84;10223145;29;20039;-69
2023/06/22 02:48:04;;;;;;;37.78;27.25;;;;;;;15.89;100.00;101866.69;10254661;28;20055;-69
2023/06/22 02:53:05;;;;;;;42.45;28.17;;;;;;;15.93;100.00;101878.03;10254253;29;20028;-69
2023/06/22 02:58:05;;;;;;;39.20;28.50;;;;;;;15.93;100.00;101872.56;10254549;29;20415;-69
2023/06/22 03:03:06;;;;;;;40.33;27.98;;;;;;;15.88;100.00;101875.06;10254275;28;20031;-69
2023/06/22 03:08:06;;;;;;;52.80;30.25;;;;;;;15.86;100.00;101885.34;10252572;29;20411;-69
2023/06/22 03:13:07;;;;;;;38.80;26.77;;;;;;;15.84;100.00;101885.59;10252932;29;20387;-70
2023/06/22 03:18:07;;;;;;;43.25;28.80;;;;;;;15.80;100.00;101863.31;10253576;29;20031;-69
2023/06/22 03:23:07;;;;;;;44.72;31.15;;;;;;;15.85;100.00;101853.63;10253181;28;20046;-69
2023/06/22 03:28:08;;;;;;;48.90;33.72;;;;;;;15.89;100.00;101846.69;10251594;29;20031;-69
2023/06/22 03:33:08;;;;;;;48.78;32.78;;;;;;;15.92;100.00;101843.56;10254596;29;20039;-69
2023/06/22 03:38:09;;;;;;;52.33;35.22;;;;;;;15.94;100.00;101858.69;10254039;28;20222;-69
2023/06/22 03:43:09;;;;;;;47.00;34.85;;;;;;;15.94;100.00;101847.75;10252613;29;20102;-68
2023/06/22 03:48:09;;;;;;;49.03;30.90;;;;;;;15.94;100.00;101845.03;10220094;29;20051;-69
2023/06/22 03:53:10;;;;;;;47.13;34.40;;;;;;;16.00;100.00;101841.47;10252481;29;20066;-69
2023/06/22 03:58:12;;;;;;;43.72;33.03;;;;;;;16.04;100.00;101833.69;10250875;29;20158;-69
2023/06/22 04:03:13;;;;;;;49.55;34.03;;;;;;;16.14;100.00;101841.44;10252076;28;20079;-69
2023/06/22 04:08:13;;;;;;;49.08;33.25;;;;;;;16.23;100.00;101840.19;10251450;28;20038;-69
2023/06/22 04:13:14;;;;;;;48.92;34.22;;;;;;;16.30;100.00;101846.47;10251094;29;20031;-69
2023/06/22 04:18:14;;;;;;;56.20;35.53;;;;;;;16.39;100.00;101845.19;10250689;29;20070;-69
2023/06/22 04:23:15;;;;;;;47.45;31.33;;;;;;;16.51;100.00;101848.97;10250440;29;20055;-69
2023/06/22 04:28:15;;;;;;;51.92;34.00;;;;;;;16.67;100.00;101844.94;10250693;29;20442;-69
2023/06/22 04:33:16;;;;;;;50.42;32.38;;;;;;;16.87;100.00;101847.63;10251164;29;20122;-69
2023/06/22 04:38:16;;;;;;;49.50;35.15;;;;;;;17.25;100.00;101846.81;10249257;29;20066;-69
2023/06/22 04:43:17;;;;;;;55.33;35.42;;;;;;;18.43;100.00;101837.91;10266052;28;20137;-69
2023/06/22 04:48:17;;;;;;;42.00;30.35;;;;;;;19.34;100.00;101854.59;10250974;28;20039;-69
2023/06/22 04:53:17;;;;;;;41.45;29.95;;;;;;;20.00;100.00;101839.84;10250388;29;20489;-70
2023/06/22 04:58:19;;;;;;;42.35;26.30;;;;;;;20.38;100.00;101838.53;10251415;29;20039;-70
2023/06/22 05:03:20;;;;;;;35.67;24.92;;;;;;;20.06;100.00;101843.56;10251080;28;20118;-72
2023/06/22 05:08:20;;;;;;;38.13;26.38;;;;;;;20.12;100.00;101837.94;10265826;28;20039;-69
2023/06/22 05:13:21;;;;;;;34.13;25.23;;;;;;;20.55;100.00;101850.53;10254224;28;20086;-69
2023/06/22 05:18:23;;;;;;;25.23;22.27;;;;;;;21.19;100.00;101841.41;10257070;29;20066;-69
2023/06/22 05:23:23;;;;;;;30.45;22.40;;;;;;;21.63;100.00;101837.00;10259020;29;20035;-69
2023/06/22 05:28:24;;;;;;;39.40;21.30;;;;;;;20.97;100.00;101850.31;10258916;29;20145;-70
2023/06/22 05:33:24;;;;;;;32.58;21.95;;;;;;;20.18;100.00;101836.16;10256166;29;20054;-68
2023/06/22 05:38:24;;;;;;;27.63;21.33;;;;;;;19.87;100.00;101837.31;10257034;29;20086;-69
2023/06/22 05:43:25;;;;;;;30.98;21.50;;;;;;;20.31;100.00;101840.56;10255304;29;20481;-70
2023/06/22 05:48:25;;;;;;;35.67;24.17;;;;;;;20.50;100.00;101847.63;10256109;29;20474;-70
2023/06/22 05:53:26;;;;;;;28.05;21.75;;;;;;;22.30;100.00;101830.66;10239283;29;20151;-71
2023/06/22 05:58:26;;;;;;;22.10;19.30;;;;;;;22.55;100.00;101829.34;10255300;28;20427;-70
2023/06/22 06:03:28;;;;;;;22.45;19.15;;;;;;;22.81;100.00;101836.03;10256067;29;20131;-70
2023/06/22 06:08:29;;;;;;;22.58;18.98;;;;;;;22.44;100.00;101839.44;10255206;28;20028;-70
2023/06/22 06:13:29;;;;;;;23.17;17.15;;;;;;;22.38;100.00;101832.16;10254623;29;20050;-70
2023/06/22 06:18:29;;;;;;;24.13;18.00;;;;;;;22.64;100.00;101834.19;10237252;29;20036;-70
2023/06/22 06:23:30;;;;;;;24.17;17.55;;;;;;;23.07;100.00;101831.69;10237226;28;20047;-70
2023/06/22 06:28:30;;;;;;;21.75;16.75;;;;;;;23.53;100.00;101840.50;10238202;29;20046;-70
2023/06/22 06:33:31;;;;;;;23.08;15.38;;;;;;;23.66;100.00;101834.53;10255860;29;20103;-71
2023/06/22 06:38:31;;;;;;;17.90;13.07;;;;;;;23.30;100.00;101825.91;10254639;28;20047;-70
2023/06/22 06:43:32;;;;;;;23.00;13.73;;;;;;;23.07;100.00;101818.75;10254555;29;20118;-70
2023/06/22 06:48:33;;;;;;;20.30;13.98;;;;;;;23.27;100.00;101818.13;10254877;29;20546;-70
2023/06/22 06:53:35;;;;;;;17.02;13.60;;;;;;;24.07;100.00;101819.13;10254330;28;20039;-70
2023/06/22 06:58:36;;;;;;;15.48;11.23;;;;;;;25.18;100.00;101819.19;10236576;29;20035;-70
2023/06/22 07:03:36;;;;;;;14.15;9.95;;;;;;;26.06;96.97;101807.84;10252531;29;20031;-71
2023/06/22 07:08:37;;;;;;;11.18;10.00;;;;;;;26.60;86.87;101807.19;10251724;29;20486;-71
2023/06/22 07:13:38;;;;;;;9.52;8.57;;;;;;;26.52;77.89;101804.19;10252984;28;20047;-71
2023/06/22 07:18:39;;;;;;;12.70;11.35;;;;;;;26.71;80.44;101807.16;10253118;28;20067;-70
2023/06/22 07:23:40;;;;;;;18.15;9.80;;;;;;;26.69;79.31;101798.28;10254294;28;20077;-71
2023/06/22 07:28:41;;;;;;;14.27;8.93;;;;;;;27.09;76.82;101784.19;10252478;29;20509;-71
2023/06/22 07:33:41;;;;;;;11.45;8.55;;;;;;;27.91;75.01;101789.16;10254151;29;20156;-70
2023/06/22 07:38:41;;;;;;;9.50;8.60;;;;;;;28.27;69.42;101788.78;10251860;28;20047;-71
2023/06/22 07:43:42;;;;;;;13.43;9.40;;;;;;;28.27;65.91;101769.28;10252671;29;20518;-71
2023/06/22 07:48:43;;;;;;;8.93;7.65;;;;;;;29.15;65.63;101764.28;10252806;29;20050;-71
2023/06/22 07:53:44;;;;;;;7.18;6.40;;;;;;;28.68;53.34;101763.22;10253053;29;20027;-71
2023/06/22 07:58:45;;;;;;;5.63;5.22;;;;;;;28.58;60.01;101758.63;10253746;29;20070;-71
2023/06/22 08:03:48;;;;;;;12.77;6.30;;;;;;;28.42;55.37;101755.19;10218662;29;20027;-71
2023/06/22 08:08:48;;;;;;;9.35;6.93;;;;;;;28.37;52.03;101755.25;10235154;29;20039;-71
2023/06/22 08:13:49;;;;;;;7.00;6.30;;;;;;;28.46;54.50;101747.94;10251624;29;20143;-71
2023/06/22 08:18:49;;;;;;;5.60;5.10;;;;;;;29.12;54.59;101748.16;10251679;29;20051;-71
2023/06/22 08:23:50;;;;;;;5.45;5.05;;;;;;;29.64;50.19;101741.47;10251498;29;20095;-71
2023/06/22 08:28:50;;;;;;;7.38;6.60;;;;;;;29.99;50.75;101738.28;10251142;28;20375;-70
2023/06/22 08:33:51;;;;;;;6.90;5.68;;;;;;;30.43;51.35;101736.91;10249986;29;20071;-70
2023/06/22 08:38:53;;;;;;;9.70;6.07;;;;;;;30.45;49.21;101737.41;10248817;29;20612;-71
2023/06/22 08:43:53;;;;;;;8.55;6.78;;;;;;;30.14;44.31;101740.81;10264917;28;20067;-71
2023/06/22 08:48:53;;;;;;;5.55;4.70;;;;;;;30.10;47.02;101736.97;10254802;28;20071;-71
2023/06/22 08:53:54;;;;;;;9.13;5.05;;;;;;;30.61;49.74;101737.91;10257435;29;20358;-71
2023/06/22 08:58:54;;;;;;;7.10;5.78;;;;;;;31.03;47.66;101729.13;10257472;29;20466;-71
2023/06/22 09:03:55;;;;;;;4.18;3.88;;;;;;;30.93;46.43;101726.56;10257770;29;20118;-71
2023/06/22 09:08:56;;;;;;;9.18;5.25;;;;;;;31.54;42.62;101724.25;10256579;29;20383;-71
2023/06/22 09:13:56;;;;;;;4.68;3.63;;;;;;;30.80;44.15;101719.88;10257144;29;20043;-71
2023/06/22 09:18:57;;;;;;;2.67;2.42;;;;;;;30.00;44.63;101723.22;10257994;28;20085;-71
2023/06/22 09:23:57;;;;;;;3.25;2.95;;;;;;;28.98;44.69;101714.59;10256680;29;20583;-70
2023/06/22 09:28:58;;;;;;;4.38;3.40;;;;;;;29.20;47.26;101725.97;10257201;29;20121;-71
2023/06/22 09:33:58;;;;;;;5.53;3.00;;;;;;;28.88;46.71;101714.75;10257407;29;20460;-70
2023/06/22 09:38:59;;;;;;;6.22;5.63;;;;;;;29.04;48.11;101704.22;10256214;29;20386;-71
2023/06/22 09:43:59;;;;;;;5.70;5.20;;;;;;;28.88;47.86;101703.59;10222582;29;20091;-70
2023/06/22 09:48:59;;;;;;;6.25;5.68;;;;;;;28.60;49.68;101697.03;10254366;29;20118;-70
2023/06/22 09:54:00;;;;;;;8.13;7.28;;;;;;;28.37;50.20;101680.03;10257031;29;20463;-70
2023/06/22 09:59:00;;;;;;;6.82;6.32;;;;;;;27.92;50.66;101682.25;10255404;28;20039;-70
2023/06/22 10:04:02;;;;;;;7.03;6.25;;;;;;;27.59;50.02;101687.56;10255955;28;20130;-71
2023/06/22 10:09:02;;;;;;;8.75;7.28;;;;;;;27.81;50.19;101687.09;10253829;29;20047;-70
2023/06/22 10:14:04;;;;;;;7.13;6.60;;;;;;;27.87;50.90;101700.97;10256054;29;20027;-70
2023/06/22 10:19:04;;;;;;;10.05;8.77;;;;;;;27.57;52.65;101692.59;10255205;28;20437;-70
2023/06/22 10:24:08;;;;;;;14.07;6.72;;;;;;;27.51;52.96;101692.94;10255104;29;20237;-70
2023/06/22 10:29:08;;;;;;;5.47;5.03;;;;;;;27.40;52.25;101694.97;10255221;29;20033;-70
2023/06/22 10:34:09;;;;;;;7.75;5.47;;;;;;;27.34;52.07;101690.56;10254348;29;20058;-71
2023/06/22 10:39:09;;;;;;;16.15;7.25;;;;;;;27.18;52.07;101689.88;10254877;28;20425;-71
2023/06/22 10:44:10;;;;;;;5.70;5.20;;;;;;;26.98;53.04;101690.84;10254879;28;20039;-71
2023/06/22 10:49:11;;;;;;;7.18;6.55;;;;;;;26.89;54.31;101693.38;10253402;29;20127;-71
2023/06/22 10:54:13;;;;;;;12.82;8.93;;;;;;;26.84;54.64;101696.22;10254871;28;20538;-70
2023/06/22 10:59:14;;;;;;;8.68;7.85;;;;;;;26.59;54.59;101705.53;10255091;28;20035;-71
2023/06/22 11:04:14;;;;;;;9.32;8.20;;;;;;;26.32;56.26;101692.00;10253866;28;20117;-70
2023/06/22 11:09:20;;;;;;;15.10;8.75;;;;;;;26.42;57.60;101691.16;10252970;28;20401;-71
2023/06/22 11:14:21;;;;;;;8.88;6.43;;;;;;;26.69;58.49;101692.72;10252196;29;20035;-70
2023/06/22 11:19:21;;;;;;;19.40;10.00;;;;;;;26.85;58.29;101695.09;10252307;29;20031;-70
2023/06/22 11:24:22;;;;;;;14.93;9.55;;;;;;;26.81;58.25;101695.97;10234363;29;20057;-71
2023/06/22 11:29:22;;;;;;;9.70;8.70;;;;;;;26.64;59.83;101685.22;10234741;29;20043;-70
2023/06/22 11:34:23;;;;;;;9.63;8.73;;;;;;;26.77;59.37;101672.63;10252142;28;20353;-71
2023/06/22 11:39:23;;;;;;;10.45;9.30;;;;;;;26.69;59.68;101681.59;10251346;29;20085;-70
2023/06/22 11:44:24;;;;;;;11.85;10.55;;;;;;;26.42;60.45;101667.00;10250716;29;20387;-71
2023/06/22 11:49:24;;;;;;;10.25;9.15;;;;;;;26.16;61.65;101668.19;10251085;29;20087;-70
2023/06/22 11:54:24;;;;;;;14.80;10.15;;;;;;;26.10;63.27;101659.09;10251275;29;20043;-70
2023/06/22 11:59:25;;;;;;;13.23;11.93;;;;;;;26.05;63.73;101642.44;10250071;29;20043;-70
2023/06/22 12:04:25;;;;;;;14.65;13.05;;;;;;;25.86;65.93;101642.22;10250298;29;20467;-70
2023/06/22 12:09:26;;;;;;;18.13;14.35;;;;;;;25.72;66.24;101628.09;10252038;29;20036;-70
2023/06/22 12:14:26;;;;;;;15.15;11.98;;;;;;;25.48;66.75;101627.03;10249760;29;20043;-70
2023/06/22 12:19:26;;;;;;;14.45;13.02;;;;;;;25.28;68.17;101620.41;10252429;29;20131;-70
2023/06/22 12:24:27;;;;;;;17.33;12.50;;;;;;;25.28;68.79;101620.41;10250829;28;20145;-70
2023/06/22 12:29:27;;;;;;;16.90;12.38;;;;;;;25.24;68.80;101608.22;10250272;28;20110;-70
2023/06/22 12:34:28;;;;;;;17.33;11.18;;;;;;;25.43;68.19;101604.84;10250409;29;20134;-70
2023/06/22 12:39:28;;;;;;;17.90;13.20;;;;;;;25.36;69.29;101605.16;10250274;28;20118;-71
2023/06/22 12:44:28;;;;;;;14.57;9.45;;;;;;;25.28;68.71;101601.00;10233282;29;20040;-71
2023/06/22 12:49:29;;;;;;;12.48;10.60;;;;;;;25.22;69.86;101602.13;10251122;29;20098;-71
2023/06/22 12:54:29;;;;;;;18.15;12.70;;;;;;;25.21;71.60;101600.47;10250763;29;20047;-71
2023/06/22 12:59:30;;;;;;;14.55;13.10;;;;;;;25.10;72.51;101604.31;10249642;29;20054;-70
2023/06/22 13:04:30;;;;;;;13.55;12.25;;;;;;;25.00;73.53;101605.16;10251358;29;20447;-71
2023/06/22 13:09:31;;;;;;;13.75;12.43;;;;;;;25.05;73.50;101610.72;10234912;29;20035;-70
2023/06/22 13:14:31;;;;;;;13.35;12.02;;;;;;;24.80;75.20;101606.00;10252664;29;20074;-70
2023/06/22 13:19:32;;;;;;;16.17;13.20;;;;;;;24.57;77.41;101604.59;10250169;29;20039;-72
2023/06/22 13:24:32;;;;;;;17.67;13.52;;;;;;;24.48;78.80;101594.31;10249792;28;20071;-70
2023/06/22 13:29:33;;;;;;;15.45;13.02;;;;;;;24.27;82.41;101598.94;10250090;28;20031;-72
2023/06/22 13:34:33;;;;;;;15.15;13.52;;;;;;;24.13;85.35;101593.91;10250404;28;20086;-70
2023/06/22 13:39:34;;;;;;;15.60;13.38;;;;;;;24.16;84.01;101589.78;10255966;29;20039;-70
2023/06/22 13:44:34;;;;;;;15.52;13.98;;;;;;;24.21;84.52;101589.78;10254785;29;20039;-70
2023/06/22 13:49:34;;;;;;;15.30;13.75;;;;;;;24.21;84.92;101581.47;10255750;29;20126;-70
2023/06/22 13:54:35;;;;;;;16.52;14.57;;;;;;;24.09;84.64;101581.75;10224525;29;20031;-70
2023/06/22 13:59:36;;;;;;;22.52;14.00;;;;;;;23.97;86.15;101578.38;10259695;28;20043;-70
2023/06/22 14:04:36;;;;;;;15.05;13.48;;;;;;;23.99;84.80;101575.31;10255018;29;20447;-70
2023/06/22 14:09:36;;;;;;;15.95;14.30;;;;;;;24.12;84.14;101581.19;10255602;29;20059;-70
2023/06/22 14:14:37;;;;;;;20.17;13.23;;;;;;;24.07;83.11;101580.34;10270495;28;20107;-70
2023/06/22 14:19:37;;;;;;;15.65;13.20;;;;;;;23.80;84.40;101567.53;10255763;29;20035;-70
2023/06/22 14:24:38;;;;;;;20.08;13.63;;;;;;;23.57;84.14;101565.97;10239139;29;20122;-70
2023/06/22 14:29:38;;;;;;;14.98;12.00;;;;;;;23.38;86.42;101573.88;10269792;28;20504;-70
2023/06/22 14:34:41;;;;;;;12.50;11.35;;;;;;;23.34;85.80;101575.53;10253364;29;20092;-70
2023/06/22 14:39:42;;;;;;;13.55;12.25;;;;;;;23.23;85.96;101587.63;10253910;29;20126;-70
2023/06/22 14:44:42;;;;;;;15.90;13.57;;;;;;;23.14;87.19;101587.28;10254899;28;20075;-70
2023/06/22 14:49:43;;;;;;;17.25;13.68;;;;;;;22.98;87.32;101591.03;10254656;28;20046;-71
2023/06/22 14:54:43;;;;;;;14.98;13.55;;;;;;;22.77;88.47;101598.25;10253015;29;20039;-70
2023/06/22 14:59:44;;;;;;;14.65;13.13;;;;;;;22.60;88.52;101606.66;10254052;29;20031;-70
2023/06/22 15:04:45;;;;;;;14.93;13.07;;;;;;;22.61;88.21;101590.94;10252487;29;20047;-70
2023/06/22 15:09:45;;;;;;;15.00;12.80;;;;;;;22.64;87.58;101594.00;10252034;29;20155;-70
2023/06/22 15:14:46;;;;;;;15.48;14.05;;;;;;;22.61;90.64;101580.72;10236666;29;20031;-70
2023/06/22 15:19:46;;;;;;;19.27;14.38;;;;;;;22.62;90.03;101578.78;10253385;28;20035;-71
2023/06/22 15:24:47;;;;;;;36.38;14.32;;;;;;;22.65;90.54;101567.22;10251615;29;20031;-71
2023/06/22 15:29:48;;;;;;;20.13;14.40;;;;;;;22.41;92.52;101570.31;10252258;29;20039;-71
2023/06/22 15:34:51;;;;;;;25.15;14.25;;;;;;;22.13;96.19;101571.34;10253490;29;20060;-71
2023/06/22 15:39:51;;;;;;;16.25;14.55;;;;;;;22.16;96.98;101567.28;10253043;28;20391;-71
2023/06/22 15:44:52;;;;;;;16.33;13.00;;;;;;;22.24;96.67;101570.41;10253422;28;20137;-71
2023/06/22 15:49:52;;;;;;;18.40;14.13;;;;;;;22.19;97.97;101570.34;10265788;28;20376;-71
2023/06/22 15:54:57;;;;;;;17.42;14.20;;;;;;;22.05;100.00;101572.66;10251709;29;20043;-71
2023/06/22 15:59:58;;;;;;;13.35;10.20;;;;;;;21.86;100.00;101571.31;10251378;28;20098;-71
2023/06/22 16:04:59;;;;;;;13.05;10.45;;;;;;;21.61;100.00;101573.75;10233477;29;20472;-71
2023/06/22 16:09:59;;;;;;;11.65;10.55;;;;;;;21.30;100.00;101567.75;10234184;29;20054;-71
2023/06/22 16:15:00;;;;;;;17.70;10.80;;;;;;;21.29;100.00;101566.09;10249957;29;20046;-71
2023/06/22 16:20:00;;;;;;;10.35;9.35;;;;;;;21.27;100.00;101558.06;10250731;29;20046;-71
2023/06/22 16:25:01;;;;;;;10.90;9.85;;;;;;;21.11;100.00;101562.50;10233777;29;20043;-71
2023/06/22 16:30:01;;;;;;;12.07;10.20;;;;;;;21.10;100.00;101557.28;10250290;29;20035;-71
2023/06/22 16:35:02;;;;;;;11.70;8.55;;;;;;;21.14;100.00;101544.66;10250822;28;20055;-70
2023/06/22 16:40:04;;;;;;;10.18;8.98;;;;;;;21.14;100.00;101559.25;10252907;28;20098;-71
2023/06/22 16:45:05;;;;;;;12.57;9.98;;;;;;;21.19;100.00;101571.47;10250449;29;20442;-71
2023/06/22 16:50:06;;;;;;;11.07;9.95;;;;;;;21.14;100.00;101588.72;10233097;29;20095;-71
2023/06/22 16:55:07;;;;;;;10.70;7.57;;;;;;;21.11;100.00;101584.53;10248765;29;20534;-71
2023/06/22 17:00:11;;;;;;;7.55;6.65;;;;;;;21.12;100.00;101586.25;10216806;29;20031;-71
2023/06/22 17:05:11;;;;;;;7.40;5.32;;;;;;;21.01;100.00;101583.56;10248063;29;20061;-71
2023/06/22 17:10:12;;;;;;;5.50;4.93;;;;;;;20.96;100.00;101588.97;10253967;28;20478;-71
2023/06/22 17:15:12;;;;;;;8.52;3.53;;;;;;;20.88;100.00;101595.75;10258149;28;20035;-70
2023/06/22 17:20:13;;;;;;;16.80;4.60;;;;;;;20.89;100.00;101608.41;10256149;29;20106;-71
2023/06/22 17:25:14;;;;;;;7.05;4.57;;;;;;;20.95;100.00;101612.91;10258120;29;20181;-71
2023/06/22 17:30:17;;;;;;;4.00;3.70;;;;;;;20.96;100.00;101625.59;10255738;29;20027;-70
2023/06/22 17:35:17;;;;;;;4.20;3.75;;;;;;;20.94;100.00;101621.44;10255873;29;20195;-70
2023/06/22 17:40:19;;;;;;;3.78;3.47;;;;;;;20.94;100.00;101619.53;10256645;29;20587;-70
2023/06/22 17:45:21;;;;;;;5.88;3.30;;;;;;;21.01;100.00;101630.38;10223938;29;20046;-70
2023/06/22 17:50:22;;;;;;;9.43;3.95;;;;;;;21.03;100.00;101629.03;10255509;29;20039;-70
2023/06/22 17:55:23;;;;;;;3.85;3.55;;;;;;;21.17;100.00;101628.72;10256483;28;20036;-70
2023/06/22 18:00:24;;;;;;;2.90;2.70;;;;;;;21.28;100.00;101630.53;10256550;29;20039;-70
2023/06/22 18:05:34;;;;;;;2.63;2.42;;;;;;;21.35;100.00;101631.25;10258527;28;20090;-70
2023/06/22 18:10:35;;;;;;;3.92;3.03;;;;;;;21.42;100.00;101642.09;10262387;28;20066;-70
2023/06/22 18:15:37;;;;;;;4.18;2.85;;;;;;;21.42;100.00;101651.19;10258575;28;20035;-70
2023/06/22 18:20:37;;;;;;;7.55;2.65;;;;;;;21.41;100.00;101652.28;10237965;28;20031;-70
2023/06/22 18:25:38;;;;;;;4.28;2.85;;;;;;;21.37;100.00;101656.59;10221903;29;20078;-71
2023/06/22 18:30:38;;;;;;;3.85;3.53;;;;;;;21.38;100.00;101663.81;10255416;28;20072;-70
2023/06/22 18:35:39;;;;;;;6.30;3.30;;;;;;;21.28;100.00;101661.69;10254981;28;20138;-70
2023/06/22 18:40:48;;;;;;;6.22;3.75;;;;;;;21.18;100.00;101672.50;10253181;29;20088;-70
2023/06/22 18:45:48;;;;;;;6.78;4.20;;;;;;;21.05;100.00;101676.44;10254702;28;20509;-70
2023/06/22 18:50:49;;;;;;;3.83;3.15;;;;;;;20.83;100.00;101673.56;10252897;29;20147;-65
2023/06/22 18:55:50;;;;;;;5.88;3.33;;;;;;;20.61;100.00;101687.19;10252872;29;20456;-65
2023/06/22 19:00:54;;;;;;;3.20;3.00;;;;;;;20.42;100.00;101672.75;10253489;28;20039;-64
2023/06/22 19:05:54;;;;;;;13.90;3.58;;;;;;;20.21;100.00;101676.16;10235679;29;20383;-65
2023/06/22 19:11:12;;;;;;;4.60;3.25;;;;;;;20.00;100.00;101685.03;10252936;29;20031;-64
2023/06/22 19:16:13;;;;;;;3.42;2.95;;;;;;;19.84;100.00;101703.09;10252916;29;20043;-65
2023/06/22 19:21:23;;;;;;;4.00;3.55;;;;;;;19.72;100.00;101706.72;10236101;29;20581;-65
2023/06/22 19:26:23;;;;;;;3.63;3.28;;;;;;;19.56;100.00;101698.28;10255860;29;20050;-64
2023/06/22 19:31:24;;;;;;;13.50;4.18;;;;;;;19.40;100.00;101705.31;10252641;28;20039;-65
2023/06/22 19:36:25;;;;;;;10.38;4.75;;;;;;;19.24;100.00;101721.44;10252335;29;20084;-65
2023/06/22 19:41:25;;;;;;;9.88;4.05;;;;;;;19.11;100.00;101718.88;10252167;29;20035;-65
2023/06/22 19:46:27;;;;;;;4.32;3.67;;;;;;;18.97;100.00;101728.38;10253317;29;20069;-66
2023/06/22 19:51:33;;;;;;;5.32;4.18;;;;;;;18.86;100.00;101741.00;10234542;29;20162;-65
2023/06/22 19:56:35;;;;;;;20.67;5.35;;;;;;;18.73;100.00;101757.63;10251594;28;20123;-65
2023/06/22 20:01:37;;;;;;;8.35;4.95;;;;;;;18.62;100.00;101753.72;10253093;28;20119;-65
2023/06/22 20:06:37;;;;;;;6.85;4.22;;;;;;;18.52;100.00;101765.22;10234567;29;20388;-65
2023/06/22 20:11:40;;;;;;;12.10;3.97;;;;;;;18.41;100.00;101770.63;10234250;29;20042;-65
2023/06/22 20:16:47;;;;;;;8.98;4.53;;;;;;;18.28;100.00;101780.72;10219251;29;20035;-65
2023/06/22 20:21:47;;;;;;;8.93;5.40;;;;;;;18.16;100.00;101777.03;10250473;29;20141;-70
2023/06/22 20:26:48;;;;;;;7.95;5.95;;;;;;;18.04;100.00;101787.06;10233619;29;20089;-69
2023/06/22 20:31:48;;;;;;;6.60;5.25;;;;;;;17.95;100.00;101793.91;10249669;29;20066;-69
2023/06/22 20:36:49;;;;;;;6.20;3.97;;;;;;;17.89;100.00;101788.25;10235360;29;20051;-69
2023/06/22 20:41:50;;;;;;;12.82;5.00;;;;;;;17.86;100.00;101790.59;10253084;28;20046;-70
2023/06/22 20:46:50;;;;;;;9.05;4.72;;;;;;;17.80;100.00;101788.75;10263443;28;20356;-69
2023/06/22 20:51:51;;;;;;;6.90;4.15;;;;;;;17.81;100.00;101791.28;10262132;29;20039;-70
2023/06/22 20:56:51;;;;;;;11.20;5.07;;;;;;;17.77;100.00;101805.63;10231961;29;20055;-70
2023/06/22 21:01:56;;;;;;;9.15;4.15;;;;;;;17.73;100.00;101809.84;10246087;28;20111;-70
2023/06/22 21:06:56;;;;;;;10.90;5.38;;;;;;;17.64;100.00;101815.63;10262963;29;20058;-70
2023/06/22 21:11:58;;;;;;;15.02;4.43;;;;;;;17.61;100.00;101806.97;10231488;28;20462;-70
2023/06/22 21:16:58;;;;;;;8.40;4.75;;;;;;;17.60;100.00;101835.44;10247462;29;20378;-70
2023/06/22 21:21:59;;;;;;;4.95;4.32;;;;;;;17.55;100.00;101836.13;10250802;29;20074;-69
2023/06/22 21:26:59;;;;;;;13.80;4.45;;;;;;;17.49;100.00;101834.25;10280522;28;20122;-70
2023/06/22 21:32:00;;;;;;;7.00;4.43;;;;;;;17.50;100.00;101832.38;10246518;29;20122;-70
2023/06/22 21:37:00;;;;;;;4.07;3.40;;;;;;;17.44;100.00;101834.91;10263659;28;20469;-69
2023/06/22 21:42:01;;;;;;;6.07;5.13;;;;;;;17.41;100.00;101854.50;10263387;28;20069;-69
2023/06/22 21:47:01;;;;;;;12.93;5.32;;;;;;;17.36;100.00;101859.81;10261738;28;20124;-69
2023/06/22 21:52:02;;;;;;;11.40;4.78;;;;;;;17.28;100.00;101860.06;10262076;28;20041;-69
2023/06/22 21:57:02;;;;;;;10.45;4.32;;;;;;;17.22;100.00;101858.22;10255027;28;20483;-69
2023/06/22 22:02:03;;;;;;;8.55;4.75;;;;;;;17.15;100.00;101860.97;10254913;29;20105;-69
2023/06/22 22:07:04;;;;;;;6.13;4.55;;;;;;;17.06;100.00;101872.38;10255379;29;20062;-69
2023/06/22 22:12:05;;;;;;;6.32;4.72;;;;;;;17.03;100.00;101873.66;10257117;29;20061;-69
2023/06/22 22:17:06;;;;;;;5.75;4.70;;;;;;;16.93;100.00;101879.59;10239826;29;20046;-70
2023/06/22 22:22:06;;;;;;;15.43;4.80;;;;;;;16.89;100.00;101872.88;10254349;29;20381;-72
2023/06/22 22:27:07;;;;;;;11.25;5.63;;;;;;;16.91;100.00;101886.31;10255340;29;20054;-69
2023/06/22 22:32:07;;;;;;;13.05;5.70;;;;;;;16.87;100.00;101893.28;10254370;29;20031;-70
2023/06/22 22:37:08;;;;;;;10.77;7.10;;;;;;;16.85;100.00;101903.63;10253325;29;20213;-70